SKVP/VUP METAR and TAF weather

Enter ICAO airport designator
Station Type Date Time Source
SKVP METAR 2019/12/09 00:00 UTC NOAA

SKVP 090000Z 05012KT 9999 FEW020 SCT200 30/18 A2988


Station Type Date Time Source
SKVP Decoded METAR 2019/12/09 00:00 UTC NOAA

Valledupar / Alfonso Lopez, Colombia (SKVP) 10-26N 073-15W
Dec 08, 2019 - 07:00 PM EST / 2019.12.09 0000 UTC
Wind: from the NE (050 degrees) at 14 MPH (12 KT):0
Visibility: greater than 7 mile(s):0
Sky conditions: partly cloudy
Temperature: 86 F (30 C)
Dew Point: 64 F (18 C)
Relative Humidity: 48%
Pressure (altimeter): 29.88 in. Hg (1011 hPa)
ob: SKVP 090000Z 05012KT 9999 FEW020 SCT200 30/18 A2988
cycle: 0

Station Type Date Time Source
SKVP TAF UTC NOAA

Error!

Example: see airport list